sensor_id;sensor_type;location;lat;lon;timestamp;P1;durP1;ratioP1;P2;durP2;ratioP2
15603;SDS011;7902;49.042;9.092;2023-04-25T00:00:18;10.37;;;2.13;;
15603;SDS011;7902;49.042;9.092;2023-04-25T00:02:44;13.93;;;2.23;;
15603;SDS011;7902;49.042;9.092;2023-04-25T00:05:10;13.33;;;2.60;;
15603;SDS011;7902;49.042;9.092;2023-04-25T00:07:36;10.20;;;2.00;;
15603;SDS011;7902;49.042;9.092;2023-04-25T00:10:02;10.53;;;2.43;;
15603;SDS011;7902;49.042;9.092;2023-04-25T00:12:29;13.30;;;2.67;;
15603;SDS011;7902;49.042;9.092;2023-04-25T00:14:55;11.27;;;2.20;;
15603;SDS011;7902;49.042;9.092;2023-04-25T00:17:22;11.60;;;2.20;;
15603;SDS011;7902;49.042;9.092;2023-04-25T00:19:50;10.67;;;2.37;;
15603;SDS011;7902;49.042;9.092;2023-04-25T00:22:16;10.23;;;2.03;;
15603;SDS011;7902;49.042;9.092;2023-04-25T00:24:43;11.00;;;2.13;;
15603;SDS011;7902;49.042;9.092;2023-04-25T00:27:08;10.00;;;2.10;;
15603;SDS011;7902;49.042;9.092;2023-04-25T00:29:34;11.30;;;2.30;;
15603;SDS011;7902;49.042;9.092;2023-04-25T00:32:00;14.97;;;2.70;;
15603;SDS011;7902;49.042;9.092;2023-04-25T00:34:27;11.40;;;2.60;;
15603;SDS011;7902;49.042;9.092;2023-04-25T00:36:52;15.23;;;3.20;;
15603;SDS011;7902;49.042;9.092;2023-04-25T00:39:18;10.67;;;2.03;;
15603;SDS011;7902;49.042;9.092;2023-04-25T00:41:45;15.77;;;2.40;;
15603;SDS011;7902;49.042;9.092;2023-04-25T00:44:11;12.10;;;2.63;;
15603;SDS011;7902;49.042;9.092;2023-04-25T00:46:38;10.60;;;2.10;;
15603;SDS011;7902;49.042;9.092;2023-04-25T00:49:04;10.63;;;2.20;;
15603;SDS011;7902;49.042;9.092;2023-04-25T00:51:30;11.87;;;2.07;;
15603;SDS011;7902;49.042;9.092;2023-04-25T00:53:58;10.30;;;1.97;;
15603;SDS011;7902;49.042;9.092;2023-04-25T00:56:24;11.37;;;2.20;;
15603;SDS011;7902;49.042;9.092;2023-04-25T00:58:52;12.43;;;1.80;;
15603;SDS011;7902;49.042;9.092;2023-04-25T01:01:22;9.67;;;1.60;;
15603;SDS011;7902;49.042;9.092;2023-04-25T01:03:48;10.53;;;1.90;;
15603;SDS011;7902;49.042;9.092;2023-04-25T01:06:15;13.10;;;2.43;;
15603;SDS011;7902;49.042;9.092;2023-04-25T01:08:42;11.37;;;2.10;;
15603;SDS011;7902;49.042;9.092;2023-04-25T01:11:08;11.10;;;2.07;;
15603;SDS011;7902;49.042;9.092;2023-04-25T01:13:34;13.33;;;2.00;;
15603;SDS011;7902;49.042;9.092;2023-04-25T01:16:00;11.50;;;2.30;;
15603;SDS011;7902;49.042;9.092;2023-04-25T01:18:27;11.73;;;2.40;;
15603;SDS011;7902;49.042;9.092;2023-04-25T01:20:54;11.07;;;1.90;;
15603;SDS011;7902;49.042;9.092;2023-04-25T01:23:21;10.60;;;1.77;;
15603;SDS011;7902;49.042;9.092;2023-04-25T01:25:50;14.47;;;1.80;;
15603;SDS011;7902;49.042;9.092;2023-04-25T01:28:16;20.23;;;1.80;;
15603;SDS011;7902;49.042;9.092;2023-04-25T01:30:43;9.70;;;1.70;;
15603;SDS011;7902;49.042;9.092;2023-04-25T01:33:09;11.30;;;1.70;;
15603;SDS011;7902;49.042;9.092;2023-04-25T01:35:36;12.17;;;1.50;;
15603;SDS011;7902;49.042;9.092;2023-04-25T01:38:02;12.57;;;1.80;;
15603;SDS011;7902;49.042;9.092;2023-04-25T01:40:28;9.47;;;1.73;;
15603;SDS011;7902;49.042;9.092;2023-04-25T01:42:55;13.10;;;2.00;;
15603;SDS011;7902;49.042;9.092;2023-04-25T01:45:21;13.13;;;1.80;;
15603;SDS011;7902;49.042;9.092;2023-04-25T01:47:47;10.83;;;1.47;;
15603;SDS011;7902;49.042;9.092;2023-04-25T01:50:15;12.43;;;2.00;;
15603;SDS011;7902;49.042;9.092;2023-04-25T01:52:42;13.50;;;2.03;;
15603;SDS011;7902;49.042;9.092;2023-04-25T01:55:09;10.50;;;1.80;;
15603;SDS011;7902;49.042;9.092;2023-04-25T01:57:35;11.23;;;1.80;;
15603;SDS011;7902;49.042;9.092;2023-04-25T02:00:02;10.70;;;1.70;;
15603;SDS011;7902;49.042;9.092;2023-04-25T02:02:30;13.20;;;1.90;;
15603;SDS011;7902;49.042;9.092;2023-04-25T02:04:56;9.73;;;1.40;;
15603;SDS011;7902;49.042;9.092;2023-04-25T02:07:22;11.07;;;1.60;;
15603;SDS011;7902;49.042;9.092;2023-04-25T02:09:48;11.60;;;1.70;;
15603;SDS011;7902;49.042;9.092;2023-04-25T02:12:14;10.27;;;1.83;;
15603;SDS011;7902;49.042;9.092;2023-04-25T02:14:40;10.13;;;1.90;;
15603;SDS011;7902;49.042;9.092;2023-04-25T02:17:05;11.17;;;1.63;;
15603;SDS011;7902;49.042;9.092;2023-04-25T02:19:32;11.57;;;2.20;;
15603;SDS011;7902;49.042;9.092;2023-04-25T02:21:58;9.93;;;1.57;;
15603;SDS011;7902;49.042;9.092;2023-04-25T02:24:24;11.40;;;2.00;;
15603;SDS011;7902;49.042;9.092;2023-04-25T02:26:50;9.67;;;1.67;;
15603;SDS011;7902;49.042;9.092;2023-04-25T02:29:16;10.60;;;1.47;;
15603;SDS011;7902;49.042;9.092;2023-04-25T02:31:42;12.50;;;1.87;;
15603;SDS011;7902;49.042;9.092;2023-04-25T02:34:08;11.03;;;1.67;;
15603;SDS011;7902;49.042;9.092;2023-04-25T02:36:34;16.63;;;2.10;;
15603;SDS011;7902;49.042;9.092;2023-04-25T02:39:01;10.83;;;1.90;;
15603;SDS011;7902;49.042;9.092;2023-04-25T02:41:27;10.70;;;1.80;;
15603;SDS011;7902;49.042;9.092;2023-04-25T02:43:52;10.00;;;1.73;;
15603;SDS011;7902;49.042;9.092;2023-04-25T02:46:18;15.47;;;1.90;;
15603;SDS011;7902;49.042;9.092;2023-04-25T02:48:44;14.83;;;2.10;;
15603;SDS011;7902;49.042;9.092;2023-04-25T02:51:10;9.70;;;1.70;;
15603;SDS011;7902;49.042;9.092;2023-04-25T02:53:36;16.53;;;1.87;;
15603;SDS011;7902;49.042;9.092;2023-04-25T02:56:02;12.00;;;1.50;;
15603;SDS011;7902;49.042;9.092;2023-04-25T02:58:28;10.57;;;1.83;;
15603;SDS011;7902;49.042;9.092;2023-04-25T03:00:54;11.03;;;1.90;;
15603;SDS011;7902;49.042;9.092;2023-04-25T03:03:20;10.10;;;1.73;;
15603;SDS011;7902;49.042;9.092;2023-04-25T03:05:48;9.90;;;1.83;;
15603;SDS011;7902;49.042;9.092;2023-04-25T03:08:16;13.87;;;1.87;;
15603;SDS011;7902;49.042;9.092;2023-04-25T03:10:42;10.50;;;1.87;;
15603;SDS011;7902;49.042;9.092;2023-04-25T03:13:08;10.27;;;1.60;;
15603;SDS011;7902;49.042;9.092;2023-04-25T03:15:35;10.70;;;2.43;;
15603;SDS011;7902;49.042;9.092;2023-04-25T03:18:02;11.63;;;2.10;;
15603;SDS011;7902;49.042;9.092;2023-04-25T03:20:28;10.23;;;1.80;;
15603;SDS011;7902;49.042;9.092;2023-04-25T03:22:54;11.27;;;2.20;;
15603;SDS011;7902;49.042;9.092;2023-04-25T03:25:19;16.40;;;1.70;;
15603;SDS011;7902;49.042;9.092;2023-04-25T03:27:45;10.70;;;1.70;;
15603;SDS011;7902;49.042;9.092;2023-04-25T03:30:11;13.50;;;2.13;;
15603;SDS011;7902;49.042;9.092;2023-04-25T03:32:37;10.70;;;2.00;;
15603;SDS011;7902;49.042;9.092;2023-04-25T03:35:03;11.17;;;2.10;;
15603;SDS011;7902;49.042;9.092;2023-04-25T03:37:30;11.90;;;2.27;;
15603;SDS011;7902;49.042;9.092;2023-04-25T03:39:56;10.03;;;1.93;;
15603;SDS011;7902;49.042;9.092;2023-04-25T03:42:22;11.63;;;1.97;;
15603;SDS011;7902;49.042;9.092;2023-04-25T03:44:48;11.03;;;2.30;;
15603;SDS011;7902;49.042;9.092;2023-04-25T03:47:15;15.77;;;4.30;;
15603;SDS011;7902;49.042;9.092;2023-04-25T03:49:41;11.10;;;2.67;;
15603;SDS011;7902;49.042;9.092;2023-04-25T03:52:07;17.20;;;3.63;;
15603;SDS011;7902;49.042;9.092;2023-04-25T03:54:33;11.40;;;2.60;;
15603;SDS011;7902;49.042;9.092;2023-04-25T03:56:59;12.27;;;2.73;;
15603;SDS011;7902;49.042;9.092;2023-04-25T03:59:25;12.03;;;2.30;;
15603;SDS011;7902;49.042;9.092;2023-04-25T04:01:51;10.60;;;2.20;;
15603;SDS011;7902;49.042;9.092;2023-04-25T04:04:18;10.60;;;2.10;;
15603;SDS011;7902;49.042;9.092;2023-04-25T04:06:44;10.53;;;2.13;;
15603;SDS011;7902;49.042;9.092;2023-04-25T04:09:10;10.47;;;2.17;;
15603;SDS011;7902;49.042;9.092;2023-04-25T04:11:37;10.10;;;1.80;;
15603;SDS011;7902;49.042;9.092;2023-04-25T04:14:06;12.07;;;2.17;;
15603;SDS011;7902;49.042;9.092;2023-04-25T04:16:33;10.77;;;2.00;;
15603;SDS011;7902;49.042;9.092;2023-04-25T04:18:59;16.13;;;2.07;;
15603;SDS011;7902;49.042;9.092;2023-04-25T04:21:25;11.13;;;1.97;;
15603;SDS011;7902;49.042;9.092;2023-04-25T04:23:53;9.20;;;1.80;;
15603;SDS011;7902;49.042;9.092;2023-04-25T04:26:20;10.20;;;2.10;;
15603;SDS011;7902;49.042;9.092;2023-04-25T04:28:49;11.07;;;2.13;;
15603;SDS011;7902;49.042;9.092;2023-04-25T04:31:20;10.87;;;2.27;;
15603;SDS011;7902;49.042;9.092;2023-04-25T04:33:47;17.93;;;2.60;;
15603;SDS011;7902;49.042;9.092;2023-04-25T04:36:13;11.10;;;2.50;;
15603;SDS011;7902;49.042;9.092;2023-04-25T04:38:39;10.70;;;2.30;;
15603;SDS011;7902;49.042;9.092;2023-04-25T04:41:06;15.53;;;2.77;;
15603;SDS011;7902;49.042;9.092;2023-04-25T04:43:32;11.00;;;2.80;;
15603;SDS011;7902;49.042;9.092;2023-04-25T04:46:02;11.63;;;2.70;;
15603;SDS011;7902;49.042;9.092;2023-04-25T04:48:30;12.73;;;3.00;;
15603;SDS011;7902;49.042;9.092;2023-04-25T04:50:58;11.90;;;2.70;;
15603;SDS011;7902;49.042;9.092;2023-04-25T04:53:24;13.20;;;3.30;;
15603;SDS011;7902;49.042;9.092;2023-04-25T04:55:50;11.37;;;3.00;;
15603;SDS011;7902;49.042;9.092;2023-04-25T04:58:16;14.60;;;3.40;;
15603;SDS011;7902;49.042;9.092;2023-04-25T05:00:42;11.57;;;3.10;;
15603;SDS011;7902;49.042;9.092;2023-04-25T05:03:08;12.43;;;3.20;;
15603;SDS011;7902;49.042;9.092;2023-04-25T05:05:35;12.33;;;3.13;;
15603;SDS011;7902;49.042;9.092;2023-04-25T05:08:00;12.30;;;3.60;;
15603;SDS011;7902;49.042;9.092;2023-04-25T05:10:26;11.00;;;2.97;;
15603;SDS011;7902;49.042;9.092;2023-04-25T05:12:52;11.97;;;3.23;;
15603;SDS011;7902;49.042;9.092;2023-04-25T05:15:18;12.27;;;3.40;;
15603;SDS011;7902;49.042;9.092;2023-04-25T05:17:44;13.40;;;3.23;;
15603;SDS011;7902;49.042;9.092;2023-04-25T05:20:10;11.17;;;3.50;;
15603;SDS011;7902;49.042;9.092;2023-04-25T05:22:36;11.63;;;3.23;;
15603;SDS011;7902;49.042;9.092;2023-04-25T05:25:02;17.67;;;3.40;;
15603;SDS011;7902;49.042;9.092;2023-04-25T05:27:29;12.30;;;3.10;;
15603;SDS011;7902;49.042;9.092;2023-04-25T05:29:55;12.57;;;3.23;;
15603;SDS011;7902;49.042;9.092;2023-04-25T05:32:20;12.00;;;3.20;;
15603;SDS011;7902;49.042;9.092;2023-04-25T05:34:46;11.87;;;3.47;;
15603;SDS011;7902;49.042;9.092;2023-04-25T05:37:12;11.60;;;3.03;;
15603;SDS011;7902;49.042;9.092;2023-04-25T05:39:38;14.07;;;3.10;;
15603;SDS011;7902;49.042;9.092;2023-04-25T05:42:04;13.03;;;3.27;;
15603;SDS011;7902;49.042;9.092;2023-04-25T05:44:30;14.47;;;3.03;;
15603;SDS011;7902;49.042;9.092;2023-04-25T05:46:56;13.37;;;4.00;;
15603;SDS011;7902;49.042;9.092;2023-04-25T05:49:22;13.10;;;3.20;;
15603;SDS011;7902;49.042;9.092;2023-04-25T05:51:48;12.73;;;3.40;;
15603;SDS011;7902;49.042;9.092;2023-04-25T05:54:14;11.60;;;3.10;;
15603;SDS011;7902;49.042;9.092;2023-04-25T05:56:40;12.30;;;3.50;;
15603;SDS011;7902;49.042;9.092;2023-04-25T05:59:06;12.37;;;3.40;;
15603;SDS011;7902;49.042;9.092;2023-04-25T06:01:32;12.23;;;3.10;;
15603;SDS011;7902;49.042;9.092;2023-04-25T06:03:58;12.60;;;3.83;;
15603;SDS011;7902;49.042;9.092;2023-04-25T06:06:23;11.70;;;3.40;;
15603;SDS011;7902;49.042;9.092;2023-04-25T06:08:49;14.60;;;4.70;;
15603;SDS011;7902;49.042;9.092;2023-04-25T06:11:15;12.53;;;4.10;;
15603;SDS011;7902;49.042;9.092;2023-04-25T06:13:41;12.57;;;3.93;;
15603;SDS011;7902;49.042;9.092;2023-04-25T06:16:07;11.57;;;3.40;;
15603;SDS011;7902;49.042;9.092;2023-04-25T06:18:33;12.00;;;3.40;;
15603;SDS011;7902;49.042;9.092;2023-04-25T06:20:59;12.97;;;3.90;;
15603;SDS011;7902;49.042;9.092;2023-04-25T06:23:25;12.30;;;3.60;;
15603;SDS011;7902;49.042;9.092;2023-04-25T06:25:51;12.50;;;3.70;;
15603;SDS011;7902;49.042;9.092;2023-04-25T06:28:17;15.50;;;4.03;;
15603;SDS011;7902;49.042;9.092;2023-04-25T06:30:43;11.43;;;2.73;;
15603;SDS011;7902;49.042;9.092;2023-04-25T06:33:09;13.70;;;3.20;;
15603;SDS011;7902;49.042;9.092;2023-04-25T06:35:34;12.10;;;3.20;;
15603;SDS011;7902;49.042;9.092;2023-04-25T06:38:00;11.77;;;2.97;;
15603;SDS011;7902;49.042;9.092;2023-04-25T06:40:26;12.70;;;3.40;;
15603;SDS011;7902;49.042;9.092;2023-04-25T06:42:52;13.77;;;3.90;;
15603;SDS011;7902;49.042;9.092;2023-04-25T06:45:18;10.93;;;2.60;;
15603;SDS011;7902;49.042;9.092;2023-04-25T06:47:44;11.67;;;2.87;;
15603;SDS011;7902;49.042;9.092;2023-04-25T06:50:10;13.13;;;3.10;;
15603;SDS011;7902;49.042;9.092;2023-04-25T06:52:36;11.53;;;2.83;;
15603;SDS011;7902;49.042;9.092;2023-04-25T06:55:02;11.47;;;3.07;;
15603;SDS011;7902;49.042;9.092;2023-04-25T06:57:29;12.77;;;3.67;;
15603;SDS011;7902;49.042;9.092;2023-04-25T06:59:55;11.73;;;3.10;;
15603;SDS011;7902;49.042;9.092;2023-04-25T07:02:21;18.90;;;2.90;;
15603;SDS011;7902;49.042;9.092;2023-04-25T07:04:47;12.43;;;3.10;;
15603;SDS011;7902;49.042;9.092;2023-04-25T07:07:13;13.00;;;2.90;;
15603;SDS011;7902;49.042;9.092;2023-04-25T07:09:39;12.43;;;3.07;;
15603;SDS011;7902;49.042;9.092;2023-04-25T07:12:05;12.47;;;3.20;;
15603;SDS011;7902;49.042;9.092;2023-04-25T07:14:31;12.10;;;3.30;;
15603;SDS011;7902;49.042;9.092;2023-04-25T07:16:57;11.77;;;3.20;;
15603;SDS011;7902;49.042;9.092;2023-04-25T07:19:23;16.40;;;4.00;;
15603;SDS011;7902;49.042;9.092;2023-04-25T07:21:52;12.57;;;3.73;;
15603;SDS011;7902;49.042;9.092;2023-04-25T07:24:18;13.23;;;3.80;;
15603;SDS011;7902;49.042;9.092;2023-04-25T07:26:44;11.87;;;3.33;;
15603;SDS011;7902;49.042;9.092;2023-04-25T07:29:10;16.90;;;5.57;;
15603;SDS011;7902;49.042;9.092;2023-04-25T07:31:36;12.07;;;3.20;;
15603;SDS011;7902;49.042;9.092;2023-04-25T07:34:02;12.43;;;3.13;;
15603;SDS011;7902;49.042;9.092;2023-04-25T07:36:28;13.87;;;2.90;;
15603;SDS011;7902;49.042;9.092;2023-04-25T07:38:54;16.47;;;4.00;;
15603;SDS011;7902;49.042;9.092;2023-04-25T07:41:20;11.70;;;3.40;;
15603;SDS011;7902;49.042;9.092;2023-04-25T07:43:45;12.00;;;3.50;;
15603;SDS011;7902;49.042;9.092;2023-04-25T07:46:11;12.20;;;3.40;;
15603;SDS011;7902;49.042;9.092;2023-04-25T07:48:37;11.57;;;3.10;;
15603;SDS011;7902;49.042;9.092;2023-04-25T07:51:03;13.63;;;3.60;;
15603;SDS011;7902;49.042;9.092;2023-04-25T07:53:30;12.20;;;3.50;;
15603;SDS011;7902;49.042;9.092;2023-04-25T07:55:57;15.17;;;3.97;;
15603;SDS011;7902;49.042;9.092;2023-04-25T07:58:23;12.37;;;3.23;;
15603;SDS011;7902;49.042;9.092;2023-04-25T08:00:49;12.43;;;3.63;;
15603;SDS011;7902;49.042;9.092;2023-04-25T08:03:15;14.10;;;3.87;;
15603;SDS011;7902;49.042;9.092;2023-04-25T08:05:41;12.87;;;3.53;;
15603;SDS011;7902;49.042;9.092;2023-04-25T08:08:07;12.57;;;3.70;;
15603;SDS011;7902;49.042;9.092;2023-04-25T08:10:33;12.93;;;3.20;;
15603;SDS011;7902;49.042;9.092;2023-04-25T08:12:59;12.80;;;3.57;;
15603;SDS011;7902;49.042;9.092;2023-04-25T08:15:25;11.50;;;3.10;;
15603;SDS011;7902;49.042;9.092;2023-04-25T08:17:51;27.20;;;3.50;;
15603;SDS011;7902;49.042;9.092;2023-04-25T08:20:17;21.60;;;4.57;;
15603;SDS011;7902;49.042;9.092;2023-04-25T08:22:43;14.70;;;4.30;;
15603;SDS011;7902;49.042;9.092;2023-04-25T08:25:09;14.17;;;4.07;;
15603;SDS011;7902;49.042;9.092;2023-04-25T08:27:35;13.20;;;3.37;;
15603;SDS011;7902;49.042;9.092;2023-04-25T08:30:02;19.37;;;4.20;;
15603;SDS011;7902;49.042;9.092;2023-04-25T08:32:29;12.50;;;3.53;;
15603;SDS011;7902;49.042;9.092;2023-04-25T08:34:55;11.57;;;3.53;;
15603;SDS011;7902;49.042;9.092;2023-04-25T08:37:21;20.07;;;3.90;;
15603;SDS011;7902;49.042;9.092;2023-04-25T08:39:47;17.10;;;3.53;;
15603;SDS011;7902;49.042;9.092;2023-04-25T08:42:14;16.60;;;4.63;;
15603;SDS011;7902;49.042;9.092;2023-04-25T08:44:40;22.47;;;4.70;;
15603;SDS011;7902;49.042;9.092;2023-04-25T08:47:06;15.53;;;5.33;;
15603;SDS011;7902;49.042;9.092;2023-04-25T08:49:32;14.40;;;4.40;;
15603;SDS011;7902;49.042;9.092;2023-04-25T08:52:00;14.60;;;4.73;;
15603;SDS011;7902;49.042;9.092;2023-04-25T08:54:28;12.90;;;4.30;;
15603;SDS011;7902;49.042;9.092;2023-04-25T08:56:54;16.20;;;3.77;;
15603;SDS011;7902;49.042;9.092;2023-04-25T08:59:23;16.60;;;4.73;;
15603;SDS011;7902;49.042;9.092;2023-04-25T09:01:49;22.43;;;5.27;;
15603;SDS011;7902;49.042;9.092;2023-04-25T09:04:15;24.10;;;5.10;;
15603;SDS011;7902;49.042;9.092;2023-04-25T09:06:41;17.40;;;4.87;;
15603;SDS011;7902;49.042;9.092;2023-04-25T09:09:08;14.20;;;5.20;;
15603;SDS011;7902;49.042;9.092;2023-04-25T09:11:35;14.60;;;4.67;;
15603;SDS011;7902;49.042;9.092;2023-04-25T09:14:20;16.83;;;4.90;;
15603;SDS011;7902;49.042;9.092;2023-04-25T09:19:31;19.03;;;4.77;;
15603;SDS011;7902;49.042;9.092;2023-04-25T09:21:59;17.10;;;4.93;;
15603;SDS011;7902;49.042;9.092;2023-04-25T09:24:37;31.97;;;5.83;;
15603;SDS011;7902;49.042;9.092;2023-04-25T09:27:09;15.30;;;5.43;;
15603;SDS011;7902;49.042;9.092;2023-04-25T09:29:37;19.97;;;5.23;;
15603;SDS011;7902;49.042;9.092;2023-04-25T09:34:45;17.63;;;5.40;;
15603;SDS011;7902;49.042;9.092;2023-04-25T09:37:19;21.70;;;4.77;;
15603;SDS011;7902;49.042;9.092;2023-04-25T09:39:46;11.73;;;3.30;;
15603;SDS011;7902;49.042;9.092;2023-04-25T09:42:25;12.90;;;2.30;;
15603;SDS011;7902;49.042;9.092;2023-04-25T09:44:53;11.00;;;1.60;;
15603;SDS011;7902;49.042;9.092;2023-04-25T09:47:22;11.13;;;1.60;;
15603;SDS011;7902;49.042;9.092;2023-04-25T09:49:49;11.87;;;1.80;;
15603;SDS011;7902;49.042;9.092;2023-04-25T09:52:17;11.03;;;1.40;;
15603;SDS011;7902;49.042;9.092;2023-04-25T09:54:47;9.57;;;1.10;;
15603;SDS011;7902;49.042;9.092;2023-04-25T09:57:15;9.60;;;1.40;;
15603;SDS011;7902;49.042;9.092;2023-04-25T09:59:43;10.40;;;1.57;;
15603;SDS011;7902;49.042;9.092;2023-04-25T10:02:10;9.30;;;1.30;;
15603;SDS011;7902;49.042;9.092;2023-04-25T10:04:37;11.07;;;1.80;;
15603;SDS011;7902;49.042;9.092;2023-04-25T10:07:07;11.37;;;2.77;;
15603;SDS011;7902;49.042;9.092;2023-04-25T10:09:36;9.67;;;1.90;;
15603;SDS011;7902;49.042;9.092;2023-04-25T10:12:03;10.40;;;2.17;;
15603;SDS011;7902;49.042;9.092;2023-04-25T10:14:31;9.70;;;1.93;;
15603;SDS011;7902;49.042;9.092;2023-04-25T10:16:57;10.03;;;2.20;;
15603;SDS011;7902;49.042;9.092;2023-04-25T10:19:24;11.80;;;2.90;;
15603;SDS011;7902;49.042;9.092;2023-04-25T10:22:02;12.90;;;3.10;;
15603;SDS011;7902;49.042;9.092;2023-04-25T10:24:31;10.30;;;2.23;;
15603;SDS011;7902;49.042;9.092;2023-04-25T10:26:57;10.57;;;2.57;;
15603;SDS011;7902;49.042;9.092;2023-04-25T10:29:24;13.00;;;2.60;;
15603;SDS011;7902;49.042;9.092;2023-04-25T10:31:51;12.03;;;3.13;;
15603;SDS011;7902;49.042;9.092;2023-04-25T10:34:17;10.10;;;2.43;;
15603;SDS011;7902;49.042;9.092;2023-04-25T10:36:50;11.43;;;2.33;;
15603;SDS011;7902;49.042;9.092;2023-04-25T10:39:24;11.77;;;2.40;;
15603;SDS011;7902;49.042;9.092;2023-04-25T10:41:53;15.03;;;2.50;;
15603;SDS011;7902;49.042;9.092;2023-04-25T10:44:21;12.10;;;2.50;;
15603;SDS011;7902;49.042;9.092;2023-04-25T10:46:47;16.90;;;3.60;;
15603;SDS011;7902;49.042;9.092;2023-04-25T10:49:29;16.90;;;3.23;;
15603;SDS011;7902;49.042;9.092;2023-04-25T10:54:51;14.03;;;3.10;;
15603;SDS011;7902;49.042;9.092;2023-04-25T10:57:38;12.60;;;4.20;;
15603;SDS011;7902;49.042;9.092;2023-04-25T11:00:06;12.00;;;3.53;;
15603;SDS011;7902;49.042;9.092;2023-04-25T11:05:08;14.53;;;4.40;;
15603;SDS011;7902;49.042;9.092;2023-04-25T11:07:43;10.43;;;3.23;;
15603;SDS011;7902;49.042;9.092;2023-04-25T11:10:15;12.10;;;3.70;;
15603;SDS011;7902;49.042;9.092;2023-04-25T11:12:40;11.70;;;3.47;;
15603;SDS011;7902;49.042;9.092;2023-04-25T11:15:07;12.00;;;3.40;;
15603;SDS011;7902;49.042;9.092;2023-04-25T11:17:33;14.87;;;4.30;;
15603;SDS011;7902;49.042;9.092;2023-04-25T11:19:59;12.40;;;4.10;;
15603;SDS011;7902;49.042;9.092;2023-04-25T11:22:26;15.20;;;4.93;;
15603;SDS011;7902;49.042;9.092;2023-04-25T11:24:53;14.90;;;4.97;;
15603;SDS011;7902;49.042;9.092;2023-04-25T11:27:19;14.57;;;5.03;;
15603;SDS011;7902;49.042;9.092;2023-04-25T11:29:46;17.13;;;5.43;;
15603;SDS011;7902;49.042;9.092;2023-04-25T11:32:17;16.13;;;5.57;;
15603;SDS011;7902;49.042;9.092;2023-04-25T11:34:44;16.40;;;5.50;;
15603;SDS011;7902;49.042;9.092;2023-04-25T11:37:11;17.33;;;5.30;;
15603;SDS011;7902;49.042;9.092;2023-04-25T11:39:38;18.37;;;5.20;;
15603;SDS011;7902;49.042;9.092;2023-04-25T11:42:05;20.00;;;6.00;;
15603;SDS011;7902;49.042;9.092;2023-04-25T11:44:31;18.70;;;5.10;;
15603;SDS011;7902;49.042;9.092;2023-04-25T11:46:57;23.90;;;5.60;;
15603;SDS011;7902;49.042;9.092;2023-04-25T11:49:23;15.47;;;5.67;;
15603;SDS011;7902;49.042;9.092;2023-04-25T11:51:50;14.60;;;5.50;;
15603;SDS011;7902;49.042;9.092;2023-04-25T11:54:16;15.77;;;4.90;;
15603;SDS011;7902;49.042;9.092;2023-04-25T11:56:43;16.30;;;6.07;;
15603;SDS011;7902;49.042;9.092;2023-04-25T11:59:09;24.27;;;6.93;;
15603;SDS011;7902;49.042;9.092;2023-04-25T12:01:36;20.20;;;6.87;;
15603;SDS011;7902;49.042;9.092;2023-04-25T12:04:20;16.90;;;5.47;;
15603;SDS011;7902;49.042;9.092;2023-04-25T12:06:51;26.33;;;7.00;;
15603;SDS011;7902;49.042;9.092;2023-04-25T12:09:20;16.90;;;4.87;;
15603;SDS011;7902;49.042;9.092;2023-04-25T12:11:53;14.57;;;4.93;;
15603;SDS011;7902;49.042;9.092;2023-04-25T12:14:22;16.80;;;5.20;;
15603;SDS011;7902;49.042;9.092;2023-04-25T12:16:52;17.80;;;4.70;;
15603;SDS011;7902;49.042;9.092;2023-04-25T12:19:21;14.17;;;4.80;;
15603;SDS011;7902;49.042;9.092;2023-04-25T12:21:47;20.57;;;4.80;;
15603;SDS011;7902;49.042;9.092;2023-04-25T12:24:15;18.23;;;5.63;;
15603;SDS011;7902;49.042;9.092;2023-04-25T12:29:18;22.43;;;6.50;;
15603;SDS011;7902;49.042;9.092;2023-04-25T12:31:48;28.63;;;8.73;;
15603;SDS011;7902;49.042;9.092;2023-04-25T12:34:15;23.40;;;7.87;;
15603;SDS011;7902;49.042;9.092;2023-04-25T12:36:41;21.60;;;7.30;;
15603;SDS011;7902;49.042;9.092;2023-04-25T12:39:07;23.03;;;7.37;;
15603;SDS011;7902;49.042;9.092;2023-04-25T12:41:33;22.00;;;6.90;;
15603;SDS011;7902;49.042;9.092;2023-04-25T12:43:59;23.73;;;6.40;;
15603;SDS011;7902;49.042;9.092;2023-04-25T12:46:25;21.77;;;5.80;;
15603;SDS011;7902;49.042;9.092;2023-04-25T12:48:51;23.10;;;6.60;;
15603;SDS011;7902;49.042;9.092;2023-04-25T12:51:17;27.23;;;6.80;;
15603;SDS011;7902;49.042;9.092;2023-04-25T12:53:43;20.57;;;6.33;;
15603;SDS011;7902;49.042;9.092;2023-04-25T12:56:09;20.53;;;5.70;;
15603;SDS011;7902;49.042;9.092;2023-04-25T12:58:35;19.20;;;5.50;;
15603;SDS011;7902;49.042;9.092;2023-04-25T13:01:01;21.33;;;5.10;;
15603;SDS011;7902;49.042;9.092;2023-04-25T13:03:27;19.57;;;5.47;;
15603;SDS011;7902;49.042;9.092;2023-04-25T13:05:53;18.23;;;4.67;;
15603;SDS011;7902;49.042;9.092;2023-04-25T13:08:19;21.27;;;4.60;;
15603;SDS011;7902;49.042;9.092;2023-04-25T13:10:45;19.47;;;4.00;;
15603;SDS011;7902;49.042;9.092;2023-04-25T13:13:11;18.30;;;4.70;;
15603;SDS011;7902;49.042;9.092;2023-04-25T13:15:37;17.77;;;4.80;;
15603;SDS011;7902;49.042;9.092;2023-04-25T13:18:03;23.93;;;4.83;;
15603;SDS011;7902;49.042;9.092;2023-04-25T13:20:31;22.60;;;4.33;;
15603;SDS011;7902;49.042;9.092;2023-04-25T13:22:57;16.40;;;4.00;;
15603;SDS011;7902;49.042;9.092;2023-04-25T13:25:23;21.10;;;4.53;;
15603;SDS011;7902;49.042;9.092;2023-04-25T13:27:48;22.80;;;4.50;;
15603;SDS011;7902;49.042;9.092;2023-04-25T13:30:14;21.07;;;4.27;;
15603;SDS011;7902;49.042;9.092;2023-04-25T13:32:40;23.60;;;5.30;;
15603;SDS011;7902;49.042;9.092;2023-04-25T13:35:16;15.93;;;4.53;;
15603;SDS011;7902;49.042;9.092;2023-04-25T13:37:42;23.23;;;4.53;;
15603;SDS011;7902;49.042;9.092;2023-04-25T13:40:09;18.57;;;4.17;;
15603;SDS011;7902;49.042;9.092;2023-04-25T13:42:37;20.23;;;5.10;;
15603;SDS011;7902;49.042;9.092;2023-04-25T13:45:03;16.40;;;4.63;;
15603;SDS011;7902;49.042;9.092;2023-04-25T13:47:29;19.70;;;4.73;;
15603;SDS011;7902;49.042;9.092;2023-04-25T13:49:56;24.57;;;5.20;;
15603;SDS011;7902;49.042;9.092;2023-04-25T13:52:22;18.13;;;4.07;;
15603;SDS011;7902;49.042;9.092;2023-04-25T13:54:49;16.27;;;4.13;;
15603;SDS011;7902;49.042;9.092;2023-04-25T13:57:16;16.10;;;4.20;;
15603;SDS011;7902;49.042;9.092;2023-04-25T13:59:43;19.87;;;4.87;;
15603;SDS011;7902;49.042;9.092;2023-04-25T14:02:09;15.20;;;4.47;;
15603;SDS011;7902;49.042;9.092;2023-04-25T14:04:35;18.73;;;4.33;;
15603;SDS011;7902;49.042;9.092;2023-04-25T14:07:01;18.40;;;4.40;;
15603;SDS011;7902;49.042;9.092;2023-04-25T14:09:28;16.37;;;4.33;;
15603;SDS011;7902;49.042;9.092;2023-04-25T14:11:54;18.27;;;4.20;;
15603;SDS011;7902;49.042;9.092;2023-04-25T14:14:21;14.83;;;4.07;;
15603;SDS011;7902;49.042;9.092;2023-04-25T14:16:48;18.77;;;4.73;;
15603;SDS011;7902;49.042;9.092;2023-04-25T14:19:14;33.53;;;15.20;;
15603;SDS011;7902;49.042;9.092;2023-04-25T14:21:40;19.97;;;7.03;;
15603;SDS011;7902;49.042;9.092;2023-04-25T14:24:07;22.50;;;4.90;;
15603;SDS011;7902;49.042;9.092;2023-04-25T14:26:34;14.80;;;4.10;;
15603;SDS011;7902;49.042;9.092;2023-04-25T14:29:03;15.77;;;3.87;;
15603;SDS011;7902;49.042;9.092;2023-04-25T14:31:30;19.30;;;4.47;;
15603;SDS011;7902;49.042;9.092;2023-04-25T14:33:57;18.63;;;4.23;;
15603;SDS011;7902;49.042;9.092;2023-04-25T14:36:22;23.60;;;4.47;;
15603;SDS011;7902;49.042;9.092;2023-04-25T14:38:48;22.83;;;4.60;;
15603;SDS011;7902;49.042;9.092;2023-04-25T14:41:14;20.50;;;4.20;;
15603;SDS011;7902;49.042;9.092;2023-04-25T14:43:41;21.63;;;4.50;;
15603;SDS011;7902;49.042;9.092;2023-04-25T14:46:06;14.90;;;3.13;;
15603;SDS011;7902;49.042;9.092;2023-04-25T14:48:33;18.20;;;4.17;;
15603;SDS011;7902;49.042;9.092;2023-04-25T14:50:59;20.27;;;4.50;;
15603;SDS011;7902;49.042;9.092;2023-04-25T14:53:26;21.00;;;4.40;;
15603;SDS011;7902;49.042;9.092;2023-04-25T14:55:52;17.30;;;4.00;;
15603;SDS011;7902;49.042;9.092;2023-04-25T14:58:19;19.90;;;4.23;;